Regionale Übersicht

METAR und TAF

Montag, 22. Juli 2019 - 10:05 Uhr

Beobachtete horizontale meteorologische Sicht an ausgewählten Flughäfen. Die vollständigen METARs und Flugwettervorhersagen (TAFs) sind verfügbar, wenn Sie auf das entsprechende Symbol mit der ICAO-Flughafenkennung klicken.

  • Luxemburg (ELLX)

    Taf: TAF ELLX 220500Z 2206/2312 31007KT CAVOK BECMG 2221/2223 04008KT=

    Metar: METAR ELLX 220750Z 27004KT 200V010 CAVOK 23/12 Q1025 NOSIG=

  • Spangdahlem (ETAD)

    Taf: TAF ETAD 220400Z 2204/2310 VRB06KT 9999 SCT160 QNH3019INS BECMG 2210/2211 28006KT 9999 FEW160 QNH3023INS TX28/2214Z TN14/2204Z=

    Metar: nil

  • Metz/Nancy (LFJL)

    Taf: TAF LFJL 220500Z 2206/2306 30005KT CAVOK=

    Metar: nil

  • Saarbrücken/Intl (EDDR)

    Taf: TAF EDDR 220500Z 2206/2306 VRB03KT CAVOK TEMPO 2209/2218 32005KT BECMG 2221/2224 05005KT=

    Metar: nil

  • Hahn (EDFH)

    Taf: TAF EDFH 220500Z 2206/2306 14004KT CAVOK BECMG 2207/2209 28005KT BECMG 2219/2222 13005KT=

    Metar: nil

  • Ramstein (ETAR)

    Taf: TAF ETAR 220203Z 2202/2308 VRB06KT 9999 FEW050 QNH3021INS BECMG 2208/2209 26009KT 9999 SKC QNH3019INS BECMG 2219/2220 VRB06KT 9999 SKC QNH3015INS TX31/2214Z TN11/2302Z=

    Metar: nil

  • Nancy/Ochey (LFSO)

    Taf: TAF AMD LFSO 220200Z 2205/2303 VRB02KT CAVOK=

    Metar: nil

  • Liège Bierset (EBLG)

    Taf: TAF EBLG 220510Z 2206/2312 24007KT CAVOK=

    Metar: nil

  • Saint-Dizier (LFSI)

    Taf: TAF AMD LFSI 220408Z 2205/2303 VRB02KT CAVOK=

    Metar: nil

  • Maastricht/Zuid Limburg (EHBK)

    Taf: TAF EHBK 220457Z 2206/2312 21005KT CAVOK=

    Metar: nil

  • Köln/Köln-Bonn (EDDK)

    Taf: TAF EDDK 220500Z 2206/2312 VRB03KT CAVOK TEMPO 2208/2218 28006KT=

    Metar: METAR EDDK 220750Z 20005KT 170V260 CAVOK 23/13 Q1024 NOSIG=

  • Charleroi (EBCI)

    Taf: TAF EBCI 220510Z 2206/2312 24007KT CAVOK=

    Metar: nil

  • Wiesbaden (ETOU)

    Taf: TAF ETOU 220307Z 2203/2309 VRB06KT 9999 FEW060 QNH3019INS BECMG 2208/2209 33009KT 9999 FEW150 QNH3017INS BECMG 2217/2218 VRB06KT 9999 FEW100 QNH3016INS TX29/2215Z TN14/2204Z=

    Metar: nil

  • Karlsruhe/Baden-Baden (EDSB)

    Taf: TAF EDSB 220500Z 2206/2306 VRB03KT CAVOK TEMPO 2210/2219 35005KT=

    Metar: nil

  • Chalons/Vatry (LFOK)

    Taf: TAF LFOK 220500Z 2206/2306 03005KT CAVOK=

    Metar: nil

  • Brüssel (EBBR)

    Taf: TAF EBBR 220510Z 2206/2312 24007KT CAVOK=

    Metar: METAR EBBR 220750Z 26009KT 220V290 CAVOK 21/12 Q1024 NOSIG=

  • Düsseldorf (EDDL)

    Taf: TAF AMD EDDL 220638Z 2206/2312 22008KT CAVOK TEMPO 2216/2304 VRB03KT BECMG 2304/2307 16008KT=

    Metar: nil

  • Luxeuil (LFSX)

    Taf: TAF LFSX 220800Z 2209/2309 24008KT CAVOK=

    Metar: nil

  • Eindhoven (EHEH)

    Taf: TAF EHEH 220518Z 2206/2312 23007KT CAVOK PROB40 TEMPO 2209/2214 25010G22KT BECMG 2218/2220 VRB03KT BECMG 2307/2310 13005KT=

    Metar: nil

  • Niederrhein (EDLV)

    Taf: TAF EDLV 220500Z 2206/2306 VRB03KT CAVOK TEMPO 2208/2218 24008KT=

    Metar: nil

  • Dortmund/Wickede (EDLW)

    Taf: TAF EDLW 220500Z 2206/2306 18008KT CAVOK BECMG 2206/2208 26009KT BECMG 2219/2221 18004KT=

    Metar: nil

  • Stuttgart/Echterdingen (EDDS)

    Taf: TAF EDDS 220500Z 2206/2306 VRB03KT CAVOK BECMG 2210/2213 36005KT BECMG 2219/2221 VRB03KT=

    Metar: METAR EDDS 220750Z VRB02KT CAVOK 23/16 Q1025 NOSIG=

  • Basel-Mühlhausen (LFSB)

    Taf: TAF LFSB 220500Z 2206/2306 33004KT CAVOK=

    Metar: METAR LFSB 220730Z VRB03KT CAVOK 24/16 Q1024 NOSIG=

  • Lille (LFQQ)

    Taf: TAF LFQQ 220500Z 2206/2312 21005KT CAVOK BECMG 2220/2222 VRB02KT BECMG 2303/2306 07007KT=

    Metar: nil

  • Paris/Charles de Gaulle (LFPG)

    Taf: TAF LFPG 220500Z 2206/2312 VRB03KT CAVOK TX35/2312Z TN19/2306Z BECMG 2307/2309 09010KT=

    Metar: nil

  • Paderborn/Lippstadt (EDLP)

    Taf: TAF EDLP 220500Z 2206/2306 20005KT CAVOK BECMG 2206/2208 26008KT BECMG 2217/2219 VRB03KT=

    Metar: nil

  • Paris/Le Bourget (LFPB)

    Taf: TAF LFPB 220500Z 2206/2306 VRB03KT CAVOK=

    Metar: METAR LFPB 220730Z AUTO 06004KT 030V100 CAVOK 22/12 Q1024 NOSIG=

  • Rotterdam (EHRD)

    Taf: TAF EHRD 220415Z 2206/2312 21010KT CAVOK BECMG 2206/2209 25015KT BECMG 2215/2218 24010KT BECMG 2218/2221 19005KT=

    Metar: nil

  • Zürich/Kloten (LSZH)

    Taf: TAF LSZH 220525Z 2206/2312 VRB02KT CAVOK TX31/2215Z TN16/2206Z TN15/2304Z PROB40 TEMPO 2214/2220 06006KT BECMG 2308/2310 04007KT=

    Metar: METAR LSZH 220750Z VRB01KT CAVOK 23/17 Q1026 NOSIG=

  • Oostende/Intl (EBOS)

    Taf: TAF EBOS 220510Z 2206/2312 21009KT CAVOK BECMG 2210/2212 27010KT BECMG 2219/2221 21004KT=

    Metar: nil

  • Paris/Orly (LFPO)

    Taf: TAF LFPO 220500Z 2206/2312 VRB03KT CAVOK BECMG 2210/2212 08005KT=

    Metar: nil

  • Beauvais (LFOB)

    Taf: TAF LFOB 220500Z 2206/2306 VRB02KT CAVOK=

    Metar: nil

  • Münster/Intl (EDDG)

    Taf: TAF EDDG 220500Z 2206/2306 VRB03KT CAVOK TEMPO 2208/2218 24009KT=

    Metar: METAR EDDG 220750Z 23005KT 190V310 CAVOK 21/13 Q1023 NOSIG=

  • Illesheim (ETIK)

    Taf: TAF ETIK 220607Z 2206/2312 VRB06KT 9999 FEW060 QNH3020INS BECMG 2207/2208 33009KT 9999 FEW150 QNH3017INS BECMG 2217/2218 VRB06KT 9999 FEW100 QNH3018INS TX26/2212Z TN09/2304Z=

    Metar: nil

  • Duebendorf (LSMD)

    Taf: TAF LSMD 220500Z NIL=

    Metar: nil

  • Villacoublay (LFPV)

    Taf: TAF LFPV 220200Z 2203/2303 04004KT CAVOK BECMG 2206/2209 20004KT=

    Metar: nil

  • Payerne (LSMP)

    Taf: TAF LSMP 220525Z 2206/2312 VRB02KT CAVOK BECMG 2209/2211 04007KT BECMG 2218/2220 VRB02KT=

    Metar: nil

  • Amsterdam/Schipol (EHAM)

    Taf: TAF EHAM 220416Z 2206/2312 21010KT CAVOK BECMG 2206/2209 25015KT BECMG 2215/2218 24010KT BECMG 2218/2221 19005KT=

    Metar: METAR EHAM 220755Z 23013KT 190V270 CAVOK 21/15 Q1021 NOSIG=

  • Emmen (LSME)

    Taf: TAF LSME 220500Z NIL=

    Metar: nil

  • Friedrichshafen (EDNY)

    Taf: TAF EDNY 220500Z 2206/2306 04004KT CAVOK BECMG 2209/2211 24005KT BECMG 2216/2218 03004KT=

    Metar: nil

  • Alpnach (LSMA)

    Taf: TAF LSMA 220500Z NIL=

    Metar: nil

  • Meiringen (LSMM)

    Taf: TAF LSMM 220500Z NIL=

    Metar: nil

  • Nürnberg (EDDN)

    Taf: TAF EDDN 220500Z 2206/2306 12004KT CAVOK BECMG 2208/2210 30006KT BECMG 2217/2218 VRB02KT=

    Metar: METAR EDDN 220750Z VRB01KT CAVOK 23/14 Q1025 BECMG 28005KT=

  • Rouen (LFOP)

    Taf: TAF LFOP 220500Z 2206/2306 13005KT CAVOK=

    Metar: nil

  • Evreux (LFOE)

    Taf: TAF LFOE 220800Z 2209/2309 15003KT CAVOK=

    Metar: nil

  • Erfurt/Bindersleben (EDDE)

    Taf: TAF EDDE 220500Z 2206/2306 23006KT CAVOK BECMG 2207/2210 29008KT BECMG 2221/2224 23005KT=

    Metar: nil